createdAt,value
2023-03-27T00:02:01.435Z,8.50
2023-03-27T00:04:34.344Z,13.27
2023-03-27T00:07:04.095Z,8.10
2023-03-27T00:09:34.649Z,11.52
2023-03-27T00:12:04.339Z,7.50
2023-03-27T00:14:34.864Z,8.90
2023-03-27T00:17:05.349Z,14.05
2023-03-27T00:19:38.977Z,10.50
2023-03-27T00:22:09.642Z,7.10
2023-03-27T00:24:39.306Z,11.57
2023-03-27T00:27:09.353Z,8.13
2023-03-27T00:29:39.975Z,8.00
2023-03-27T00:32:10.049Z,10.05
2023-03-27T00:34:42.365Z,9.63
2023-03-27T00:37:13.149Z,7.07
2023-03-27T00:39:43.215Z,12.43
2023-03-27T00:42:15.249Z,6.25
2023-03-27T00:44:45.039Z,9.15
2023-03-27T00:47:15.182Z,6.03
2023-03-27T00:49:48.835Z,11.40
2023-03-27T00:52:21.565Z,11.40
2023-03-27T00:54:52.415Z,9.60
2023-03-27T00:57:22.452Z,10.25
2023-03-27T00:59:53.273Z,10.27
2023-03-27T01:02:23.498Z,6.60
2023-03-27T01:04:57.247Z,12.48
2023-03-27T01:07:28.886Z,8.23
2023-03-27T01:09:58.657Z,8.38
2023-03-27T01:12:37.123Z,7.97
2023-03-27T01:15:14.309Z,8.40
2023-03-27T01:17:49.788Z,8.27
2023-03-27T01:20:34.431Z,9.95
2023-03-27T01:23:35.380Z,12.00
2023-03-27T01:26:17.842Z,11.18
2023-03-27T01:29:07.902Z,10.85
2023-03-27T01:31:44.149Z,14.18
2023-03-27T01:34:31.274Z,9.98
2023-03-27T01:37:12.853Z,11.43
2023-03-27T01:39:50.422Z,11.50
2023-03-27T01:42:22.535Z,10.98
2023-03-27T01:44:54.516Z,11.05
2023-03-27T01:47:39.545Z,9.68
2023-03-27T01:50:13.876Z,10.02
2023-03-27T01:52:46.033Z,13.73
2023-03-27T01:55:20.375Z,9.85
2023-03-27T01:57:53.225Z,12.63
2023-03-27T02:00:24.779Z,10.05
2023-03-27T02:03:09.452Z,7.82
2023-03-27T02:05:42.831Z,10.50
2023-03-27T02:08:14.664Z,10.38
2023-03-27T02:10:50.924Z,8.15
2023-03-27T02:13:22.786Z,9.88
2023-03-27T02:15:53.474Z,10.05
2023-03-27T02:18:25.978Z,9.65
2023-03-27T02:20:55.827Z,9.35
2023-03-27T02:23:25.843Z,11.35
2023-03-27T02:25:58.160Z,9.15
2023-03-27T02:28:37.021Z,11.48
2023-03-27T02:31:33.020Z,8.93
2023-03-27T02:34:09.798Z,9.32
2023-03-27T02:36:43.649Z,9.20
2023-03-27T02:39:16.952Z,9.23
2023-03-27T02:41:53.533Z,10.65
2023-03-27T02:44:46.532Z,11.57
2023-03-27T02:47:19.556Z,9.30
2023-03-27T02:49:51.577Z,11.57
2023-03-27T02:52:23.307Z,12.88
2023-03-27T02:54:55.613Z,10.20
2023-03-27T02:57:32.117Z,12.15
2023-03-27T03:00:25.791Z,16.63
2023-03-27T03:03:19.663Z,11.65
2023-03-27T03:05:58.777Z,11.98
2023-03-27T03:08:30.797Z,14.25
2023-03-27T03:11:06.411Z,13.05
2023-03-27T03:13:39.418Z,15.27
2023-03-27T03:16:10.264Z,14.15
2023-03-27T03:18:40.073Z,15.10
2023-03-27T03:21:10.670Z,12.57
2023-03-27T03:23:40.385Z,16.02
2023-03-27T03:26:10.389Z,16.65
2023-03-27T03:29:00.231Z,15.23
2023-03-27T03:31:44.618Z,18.67
2023-03-27T03:34:16.480Z,14.80
2023-03-27T03:36:49.760Z,17.40
2023-03-27T03:39:24.887Z,20.20
2023-03-27T03:41:55.728Z,15.80
2023-03-27T03:44:28.123Z,22.67
2023-03-27T03:46:59.288Z,14.43
2023-03-27T03:49:29.066Z,20.40
2023-03-27T03:52:04.447Z,19.50
2023-03-27T03:54:38.850Z,16.30
2023-03-27T03:57:09.061Z,22.23
2023-03-27T03:59:41.709Z,26.00
2023-03-27T04:02:31.382Z,25.30
2023-03-27T04:05:08.581Z,20.50
2023-03-27T04:07:42.568Z,22.67
2023-03-27T04:10:24.556Z,23.58
2023-03-27T04:12:54.545Z,29.20
2023-03-27T04:15:39.611Z,28.05
2023-03-27T04:18:24.887Z,25.70
2023-03-27T04:20:55.588Z,24.52
2023-03-27T04:23:33.431Z,24.88
2023-03-27T04:26:04.533Z,26.58
2023-03-27T04:28:54.414Z,27.65
2023-03-27T04:31:49.539Z,25.75
2023-03-27T04:34:40.018Z,30.33
2023-03-27T04:37:23.106Z,22.55
2023-03-27T04:40:30.866Z,18.02
2023-03-27T04:43:01.397Z,23.55
2023-03-27T04:45:32.582Z,27.15
2023-03-27T04:48:06.660Z,31.25
2023-03-27T04:50:40.561Z,25.27
2023-03-27T04:53:12.877Z,25.98
2023-03-27T04:55:47.926Z,27.30
2023-03-27T04:58:18.303Z,29.90
2023-03-27T05:00:50.663Z,29.35
2023-03-27T05:03:46.242Z,30.85
2023-03-27T05:06:23.647Z,29.70
2023-03-27T05:08:53.680Z,39.50
2023-03-27T05:11:28.860Z,37.97
2023-03-27T05:13:58.518Z,35.70
2023-03-27T05:16:30.614Z,18.77
2023-03-27T05:19:06.605Z,28.45
2023-03-27T05:21:43.021Z,28.83
2023-03-27T05:24:14.146Z,19.85
2023-03-27T05:26:43.909Z,22.77
2023-03-27T05:29:14.323Z,21.25
2023-03-27T05:31:47.856Z,18.77
2023-03-27T05:34:38.875Z,16.97
2023-03-27T05:37:12.657Z,12.70
2023-03-27T05:40:02.629Z,10.80
2023-03-27T05:42:33.052Z,9.02
2023-03-27T05:45:02.759Z,9.95
2023-03-27T05:47:32.542Z,7.85
2023-03-27T05:50:05.224Z,7.20
2023-03-27T05:52:35.225Z,11.13
2023-03-27T05:55:06.818Z,6.80
2023-03-27T05:57:41.488Z,6.85
2023-03-27T06:00:14.142Z,8.40
2023-03-27T06:02:46.529Z,10.23
2023-03-27T06:05:21.650Z,9.52
2023-03-27T06:07:53.904Z,8.90
2023-03-27T06:10:23.642Z,9.70
2023-03-27T06:13:00.742Z,8.30
2023-03-27T06:15:38.111Z,11.55
2023-03-27T06:18:20.037Z,15.13
2023-03-27T06:20:52.979Z,12.18
2023-03-27T06:23:22.902Z,11.70
2023-03-27T06:25:53.305Z,8.93
2023-03-27T06:28:26.382Z,11.35
2023-03-27T06:30:57.918Z,9.25
2023-03-27T06:33:38.654Z,12.00
2023-03-27T06:36:12.835Z,11.18
2023-03-27T06:38:44.435Z,9.90
2023-03-27T06:41:14.178Z,10.90
2023-03-27T06:44:02.255Z,9.25
2023-03-27T06:46:45.254Z,6.78
2023-03-27T06:49:36.119Z,11.98
2023-03-27T06:52:16.582Z,7.30
2023-03-27T06:54:47.885Z,9.90
2023-03-27T06:57:18.617Z,8.85
2023-03-27T07:00:02.845Z,9.73
2023-03-27T07:03:03.030Z,7.35
2023-03-27T07:05:53.851Z,15.60
2023-03-27T07:08:26.906Z,10.70
2023-03-27T07:11:10.716Z,10.65
2023-03-27T07:13:46.213Z,15.05
2023-03-27T07:16:24.154Z,17.77
2023-03-27T07:18:54.010Z,16.40
2023-03-27T07:21:23.933Z,13.90
2023-03-27T07:23:56.286Z,16.48
2023-03-27T07:26:36.023Z,12.45
2023-03-27T07:31:59.707Z,12.95
2023-03-27T07:34:40.256Z,11.45
2023-03-27T07:37:28.275Z,11.35
2023-03-27T07:40:29.530Z,15.00
2023-03-27T07:45:56.124Z,12.85
2023-03-27T07:48:28.123Z,16.17
2023-03-27T07:51:10.749Z,16.60
2023-03-27T07:53:43.819Z,19.88
2023-03-27T07:56:26.744Z,21.88
2023-03-27T07:59:23.373Z,19.38
2023-03-27T08:01:53.599Z,17.42
2023-03-27T08:04:27.546Z,18.50
2023-03-27T08:07:11.877Z,19.33
2023-03-27T08:09:44.782Z,11.45
2023-03-27T08:12:17.524Z,14.07
2023-03-27T08:14:58.103Z,15.13
2023-03-27T08:17:30.650Z,16.30
2023-03-27T08:20:02.315Z,11.75
2023-03-27T08:22:34.287Z,15.25
2023-03-27T08:25:26.895Z,13.60
2023-03-27T08:28:02.114Z,12.95
2023-03-27T08:30:32.061Z,14.10
2023-03-27T08:33:02.613Z,13.63
2023-03-27T08:35:32.840Z,15.25
2023-03-27T08:38:03.875Z,14.00
2023-03-27T08:40:59.176Z,11.77
2023-03-27T08:43:44.240Z,16.70
2023-03-27T08:46:19.655Z,15.70
2023-03-27T08:48:53.757Z,17.25
2023-03-27T08:51:28.398Z,14.25
2023-03-27T08:54:00.150Z,14.48
2023-03-27T08:56:32.659Z,14.98
2023-03-27T08:59:05.966Z,14.68
2023-03-27T09:01:41.359Z,17.80
2023-03-27T09:04:20.693Z,11.10
2023-03-27T09:06:57.421Z,10.07
2023-03-27T09:09:34.814Z,12.25
2023-03-27T09:12:09.415Z,12.32
2023-03-27T09:14:46.340Z,15.75
2023-03-27T09:17:20.087Z,9.80
2023-03-27T09:19:53.400Z,14.60
2023-03-27T09:22:29.669Z,13.82
2023-03-27T09:25:11.220Z,12.55
2023-03-27T09:28:17.273Z,18.92
2023-03-27T09:30:56.119Z,13.38
2023-03-27T09:33:31.423Z,17.13
2023-03-27T09:36:02.008Z,11.82
2023-03-27T09:38:33.473Z,15.77
2023-03-27T09:41:07.096Z,15.55
2023-03-27T09:43:42.718Z,13.30
2023-03-27T09:46:19.604Z,12.82
2023-03-27T09:48:59.163Z,12.25
2023-03-27T09:51:39.392Z,14.85
2023-03-27T09:54:17.119Z,13.07
2023-03-27T09:56:49.391Z,13.30
2023-03-27T09:59:25.322Z,10.95
2023-03-27T10:01:58.644Z,9.82
2023-03-27T10:04:30.352Z,11.98
2023-03-27T10:07:05.637Z,8.73
2023-03-27T10:10:05.761Z,9.18
2023-03-27T10:12:40.965Z,14.05
2023-03-27T10:15:29.077Z,8.20
2023-03-27T10:18:01.958Z,10.98
2023-03-27T10:20:31.771Z,9.68
2023-03-27T10:23:03.527Z,7.78
2023-03-27T10:25:38.258Z,9.15
2023-03-27T10:28:26.200Z,9.00
2023-03-27T10:31:14.022Z,10.07
2023-03-27T10:33:59.754Z,8.75
2023-03-27T10:37:01.797Z,8.30
2023-03-27T10:39:32.910Z,11.25
2023-03-27T10:42:12.544Z,10.10
2023-03-27T10:44:48.513Z,8.70
2023-03-27T10:47:19.974Z,10.20
2023-03-27T10:49:58.149Z,7.75
2023-03-27T10:52:37.075Z,7.15
2023-03-27T10:55:21.056Z,7.82
2023-03-27T10:57:54.825Z,7.97
2023-03-27T11:00:32.945Z,8.45
2023-03-27T11:03:07.253Z,11.30
2023-03-27T11:05:41.660Z,8.57
2023-03-27T11:08:19.818Z,10.98
2023-03-27T11:10:51.192Z,5.63
2023-03-27T11:13:30.962Z,8.02
2023-03-27T11:16:14.943Z,5.93
2023-03-27T11:19:07.740Z,7.95
2023-03-27T11:21:49.034Z,8.77
2023-03-27T11:24:28.924Z,9.13
2023-03-27T11:27:06.189Z,9.70
2023-03-27T11:29:38.783Z,9.23
2023-03-27T11:32:16.371Z,7.75
2023-03-27T11:34:53.228Z,12.05
2023-03-27T11:37:53.957Z,8.35
2023-03-27T11:40:27.310Z,8.65
2023-03-27T11:43:04.491Z,5.47
2023-03-27T11:45:40.749Z,7.65
2023-03-27T11:48:19.207Z,7.40
2023-03-27T11:50:55.304Z,8.90
2023-03-27T11:53:34.634Z,7.68
2023-03-27T11:56:20.954Z,8.10
2023-03-27T11:59:04.649Z,4.70
2023-03-27T12:01:38.671Z,8.55
2023-03-27T12:04:14.707Z,5.88
2023-03-27T12:07:12.064Z,4.68
2023-03-27T12:09:57.299Z,5.82
2023-03-27T12:12:56.762Z,5.80
2023-03-27T12:15:35.944Z,5.03
2023-03-27T12:18:10.359Z,4.40
2023-03-27T12:20:53.027Z,4.90
2023-03-27T12:23:38.029Z,7.25
2023-03-27T12:26:40.027Z,4.88
2023-03-27T12:29:34.612Z,6.03
2023-03-27T12:32:16.949Z,5.55
2023-03-27T12:34:55.201Z,4.55
2023-03-27T12:37:31.217Z,4.28
2023-03-27T12:40:10.604Z,3.28
2023-03-27T12:42:45.596Z,4.63
2023-03-27T12:45:19.703Z,4.60
2023-03-27T12:48:10.208Z,4.75
2023-03-27T12:50:44.178Z,4.90
2023-03-27T12:53:21.908Z,4.95
2023-03-27T12:55:51.984Z,3.70
2023-03-27T12:58:38.468Z,3.88
2023-03-27T13:01:23.493Z,7.30
2023-03-27T13:04:10.177Z,4.95
2023-03-27T13:06:43.862Z,7.57
2023-03-27T13:09:29.567Z,5.20
2023-03-27T13:12:15.357Z,4.70
2023-03-27T13:15:01.418Z,5.40
2023-03-27T13:17:49.526Z,4.50
2023-03-27T13:20:27.535Z,4.85
2023-03-27T13:23:06.218Z,3.58
2023-03-27T13:25:57.082Z,2.95
2023-03-27T13:28:36.335Z,4.45
2023-03-27T13:31:16.884Z,3.05
2023-03-27T13:34:14.857Z,3.38
2023-03-27T13:36:50.003Z,5.80
2023-03-27T13:39:42.240Z,3.03
2023-03-27T13:42:14.737Z,3.13
2023-03-27T13:45:01.506Z,3.92
2023-03-27T13:47:48.835Z,2.75
2023-03-27T13:50:24.091Z,5.32
2023-03-27T13:53:08.516Z,4.25
2023-03-27T13:56:09.831Z,4.30
2023-03-27T13:59:14.994Z,2.55
2023-03-27T14:01:52.284Z,4.50
2023-03-27T14:04:41.061Z,4.05
2023-03-27T14:07:22.505Z,3.22
2023-03-27T14:10:12.888Z,4.43
2023-03-27T14:12:56.283Z,6.10
2023-03-27T14:15:45.117Z,2.65
2023-03-27T14:18:40.970Z,4.18
2023-03-27T14:21:24.516Z,3.92
2023-03-27T14:24:06.829Z,3.30
2023-03-27T14:26:52.190Z,2.80
2023-03-27T14:29:21.884Z,2.83
2023-03-27T14:31:54.104Z,2.67
2023-03-27T14:34:54.279Z,4.30
2023-03-27T14:37:42.092Z,4.30
2023-03-27T14:40:39.539Z,5.43
2023-03-27T14:43:10.951Z,1.88
2023-03-27T14:45:42.121Z,4.32
2023-03-27T14:48:19.465Z,3.17
2023-03-27T14:50:51.815Z,3.25
2023-03-27T14:53:28.576Z,4.03
2023-03-27T14:56:33.809Z,5.38
2023-03-27T14:59:13.975Z,4.70
2023-03-27T15:01:54.079Z,5.35
2023-03-27T15:04:24.892Z,3.13
2023-03-27T15:06:57.105Z,3.80
2023-03-27T15:09:49.802Z,3.03
2023-03-27T15:12:40.630Z,6.10
2023-03-27T15:15:24.999Z,4.40
2023-03-27T15:17:59.930Z,3.33
2023-03-27T15:20:32.005Z,3.65
2023-03-27T15:23:04.242Z,3.35
2023-03-27T15:25:44.884Z,3.67
2023-03-27T15:28:20.061Z,3.15
2023-03-27T15:30:51.619Z,3.67
2023-03-27T15:33:23.504Z,3.80
2023-03-27T15:35:56.373Z,4.47
2023-03-27T15:38:29.122Z,3.60
2023-03-27T15:41:05.603Z,4.90
2023-03-27T15:43:36.670Z,2.08
2023-03-27T15:46:16.157Z,3.33
2023-03-27T15:48:49.458Z,3.47
2023-03-27T15:51:30.673Z,4.32
2023-03-27T15:54:00.672Z,6.00
2023-03-27T15:56:38.876Z,5.35
2023-03-27T15:59:09.848Z,3.63
2023-03-27T16:01:41.104Z,4.72
2023-03-27T16:04:12.290Z,4.45
2023-03-27T16:06:44.553Z,2.55
2023-03-27T16:09:23.981Z,1.80
2023-03-27T16:14:34.513Z,3.80
2023-03-27T16:17:19.880Z,3.65
2023-03-27T16:19:54.334Z,3.70
2023-03-27T16:22:27.823Z,3.10
2023-03-27T16:24:58.073Z,5.70
2023-03-27T16:27:30.221Z,2.75
2023-03-27T16:30:02.539Z,1.73
2023-03-27T16:32:32.935Z,5.45
2023-03-27T16:35:02.809Z,6.53
2023-03-27T16:37:32.511Z,4.18
2023-03-27T16:40:02.813Z,5.78
2023-03-27T16:42:32.879Z,4.32
2023-03-27T16:45:05.570Z,4.97
2023-03-27T16:47:35.415Z,4.07
2023-03-27T16:50:10.856Z,4.00
2023-03-27T16:52:41.872Z,3.88
2023-03-27T16:55:14.050Z,3.53
2023-03-27T16:57:46.259Z,2.45
2023-03-27T17:00:20.278Z,3.80
2023-03-27T17:02:50.370Z,4.40
2023-03-27T17:05:20.095Z,5.63
2023-03-27T17:07:49.956Z,4.00
2023-03-27T17:10:19.894Z,3.85
2023-03-27T17:12:49.602Z,1.52
2023-03-27T17:15:21.984Z,4.78
2023-03-27T17:17:53.229Z,1.63
2023-03-27T17:20:23.168Z,3.38
2023-03-27T17:22:52.988Z,7.93
2023-03-27T17:25:22.658Z,8.73
2023-03-27T17:27:52.539Z,2.97
2023-03-27T17:30:38.135Z,3.13
2023-03-27T17:33:11.169Z,2.45
2023-03-27T17:35:41.228Z,4.22
2023-03-27T17:38:11.101Z,4.70
2023-03-27T17:40:41.991Z,4.78
2023-03-27T17:43:12.605Z,2.85
2023-03-27T17:45:45.955Z,2.83
2023-03-27T17:48:15.682Z,2.50
2023-03-27T17:50:49.702Z,1.52
2023-03-27T17:53:24.661Z,1.73
2023-03-27T17:55:54.410Z,1.88
2023-03-27T17:58:26.489Z,2.15
2023-03-27T18:00:58.832Z,2.58
2023-03-27T18:03:28.742Z,2.50
2023-03-27T18:05:58.963Z,3.03
2023-03-27T18:08:28.903Z,4.20
2023-03-27T18:10:58.689Z,7.40
2023-03-27T18:13:28.603Z,3.22
2023-03-27T18:16:02.330Z,8.00
2023-03-27T18:18:33.358Z,6.97
2023-03-27T18:21:03.036Z,10.10
2023-03-27T18:23:33.074Z,9.20
2023-03-27T18:26:05.194Z,5.82
2023-03-27T18:28:34.892Z,5.97
2023-03-27T18:31:08.394Z,5.22
2023-03-27T18:33:38.404Z,2.72
2023-03-27T18:36:10.954Z,5.30
2023-03-27T18:38:42.187Z,5.82
2023-03-27T18:41:12.192Z,3.97
2023-03-27T18:43:41.912Z,7.18
2023-03-27T18:46:17.279Z,10.82
2023-03-27T18:48:49.186Z,6.32
2023-03-27T18:51:20.453Z,6.70
2023-03-27T18:53:50.120Z,12.98
2023-03-27T18:56:21.314Z,7.95
2023-03-27T18:58:51.034Z,16.73
2023-03-27T19:01:23.465Z,9.45
2023-03-27T19:03:54.190Z,9.00
2023-03-27T19:06:25.624Z,12.15
2023-03-27T19:08:55.508Z,5.60
2023-03-27T19:11:25.629Z,6.47
2023-03-27T19:14:13.733Z,7.77
2023-03-27T19:17:14.875Z,3.95
2023-03-27T19:20:12.245Z,8.02
2023-03-27T19:22:52.345Z,7.45
2023-03-27T19:25:35.608Z,7.35
2023-03-27T19:28:05.753Z,8.00
2023-03-27T19:30:35.950Z,8.90
2023-03-27T19:33:11.579Z,5.93
2023-03-27T19:35:42.481Z,5.00
2023-03-27T19:38:12.258Z,9.35
2023-03-27T19:40:43.636Z,4.60
2023-03-27T19:43:15.884Z,4.32
2023-03-27T19:46:08.178Z,6.82
2023-03-27T19:48:47.722Z,7.25
2023-03-27T19:51:27.937Z,4.43
2023-03-27T19:53:57.900Z,10.55
2023-03-27T19:56:29.444Z,6.47
2023-03-27T19:58:59.151Z,10.27
2023-03-27T20:01:28.867Z,11.95
2023-03-27T20:04:01.584Z,9.30
2023-03-27T20:06:31.316Z,9.02
2023-03-27T20:09:01.258Z,7.30
2023-03-27T20:11:31.149Z,8.93
2023-03-27T20:14:01.088Z,8.63
2023-03-27T20:16:31.517Z,7.20
2023-03-27T20:19:06.557Z,6.38
2023-03-27T20:21:37.850Z,4.63
2023-03-27T20:24:10.690Z,4.57
2023-03-27T20:26:48.555Z,8.98
2023-03-27T20:29:25.205Z,8.18
2023-03-27T20:31:54.986Z,6.60
2023-03-27T20:34:27.345Z,7.38
2023-03-27T20:36:59.214Z,7.38
2023-03-27T20:39:47.528Z,4.97
2023-03-27T20:42:18.039Z,8.07
2023-03-27T20:44:55.194Z,6.68
2023-03-27T20:47:25.011Z,6.38
2023-03-27T20:49:59.182Z,4.63
2023-03-27T20:52:28.882Z,7.85
2023-03-27T20:54:58.570Z,9.80
2023-03-27T20:57:28.352Z,8.07
2023-03-27T20:59:58.070Z,4.60
2023-03-27T21:02:27.796Z,11.85
2023-03-27T21:05:00.153Z,6.53
2023-03-27T21:07:29.854Z,6.18
2023-03-27T21:09:59.557Z,5.45
2023-03-27T21:12:29.399Z,6.53
2023-03-27T21:14:59.118Z,10.77
2023-03-27T21:17:28.792Z,10.43
2023-03-27T21:20:01.272Z,4.85
2023-03-27T21:22:31.051Z,6.75
2023-03-27T21:25:00.836Z,7.00
2023-03-27T21:27:31.196Z,9.45
2023-03-27T21:30:01.813Z,8.10
2023-03-27T21:32:31.608Z,9.15
2023-03-27T21:35:04.034Z,7.57
2023-03-27T21:37:37.007Z,7.15
2023-03-27T21:40:07.684Z,8.55
2023-03-27T21:42:37.508Z,7.05
2023-03-27T21:45:07.726Z,6.95
2023-03-27T21:47:47.285Z,7.78
2023-03-27T21:50:20.516Z,8.60
2023-03-27T21:52:50.172Z,9.75
2023-03-27T21:55:19.921Z,7.70
2023-03-27T21:57:49.647Z,3.05
2023-03-27T22:00:19.663Z,8.05
2023-03-27T22:02:49.356Z,7.63
2023-03-27T22:05:21.738Z,7.45
2023-03-27T22:07:51.506Z,18.45
2023-03-27T22:10:21.626Z,7.82
2023-03-27T22:12:51.279Z,14.77
2023-03-27T22:15:21.052Z,7.70
2023-03-27T22:17:51.005Z,7.07
2023-03-27T22:20:23.506Z,10.15
2023-03-27T22:22:53.219Z,8.43
2023-03-27T22:25:22.932Z,2.90
2023-03-27T22:27:53.094Z,3.28
2023-03-27T22:30:22.951Z,3.53
2023-03-27T22:32:52.732Z,3.90
2023-03-27T22:35:25.155Z,4.00
2023-03-27T22:37:55.084Z,6.47
2023-03-27T22:40:24.791Z,10.77
2023-03-27T22:42:54.479Z,5.30
2023-03-27T22:45:24.190Z,5.68
2023-03-27T22:47:54.005Z,4.15
2023-03-27T22:50:26.413Z,6.57
2023-03-27T22:52:56.062Z,8.32
2023-03-27T22:55:25.747Z,3.75
2023-03-27T22:57:55.587Z,7.72
2023-03-27T23:00:25.580Z,9.48
2023-03-27T23:02:55.355Z,3.35
2023-03-27T23:05:27.686Z,1.80
2023-03-27T23:07:57.385Z,6.10
2023-03-27T23:10:27.090Z,4.47
2023-03-27T23:12:56.735Z,2.75
2023-03-27T23:15:29.769Z,3.47
2023-03-27T23:18:00.262Z,2.88
2023-03-27T23:20:32.666Z,8.75
2023-03-27T23:23:02.370Z,8.65
2023-03-27T23:25:32.090Z,8.93
2023-03-27T23:28:01.777Z,10.40
2023-03-27T23:30:31.486Z,6.47
2023-03-27T23:33:01.542Z,17.00
2023-03-27T23:35:33.877Z,9.77
2023-03-27T23:38:03.602Z,5.93
2023-03-27T23:40:35.347Z,5.20
2023-03-27T23:43:05.002Z,5.18
2023-03-27T23:45:34.737Z,7.40
2023-03-27T23:48:04.452Z,7.50
2023-03-27T23:50:36.783Z,8.75
2023-03-27T23:53:06.461Z,8.55
2023-03-27T23:55:36.264Z,3.45
2023-03-27T23:58:06.279Z,2.70
